Time;durP1;ratioP1;P1;durP2;ratioP2;P2;SDS_P1;SDS_P2;PMS_P1;PMS_P2;Temp;Humidity;BMP_temperature;BMP_pressure;BME280_temperature;BME280_humidity;BME280_pressure;Samples;Min_cycle;Max_cycle;Signal;HPM_P1;HPM_P2
2022/12/12 17:00:53;;;;;;;21.23;7.07;;;17.90;49.40;;;;;;5047499;28;20510;-77
2022/12/12 17:03:22;;;;;;;29.70;6.03;;;18.00;50.70;;;;;;5046320;28;20552;-84
2022/12/12 17:05:49;;;;;;;13.73;6.32;;;18.00;51.50;;;;;;5046366;28;20029;-75
2022/12/12 17:08:15;;;;;;;17.08;5.70;;;18.00;51.00;;;;;;5047708;28;20408;-78
2022/12/12 17:10:43;;;;;;;17.67;5.15;;;18.20;51.10;;;;;;5031093;28;20123;-77
2022/12/12 17:13:15;;;;;;;15.77;5.60;;;18.20;51.10;;;;;;5047219;28;20032;-81
2022/12/12 17:15:41;;;;;;;17.80;5.10;;;18.30;52.20;;;;;;5030663;28;20033;-79
2022/12/12 17:18:07;;;;;;;25.13;5.32;;;18.30;52.70;;;;;;5048880;28;20029;-76
2022/12/12 17:20:33;;;;;;;18.60;5.13;;;18.40;52.80;;;;;;5048473;28;20087;-86
2022/12/12 17:22:59;;;;;;;15.25;5.97;;;18.40;53.20;;;;;;5047198;28;20048;-77
2022/12/12 17:25:24;;;;;;;16.00;5.20;;;18.50;53.30;;;;;;5030558;28;20044;-74
2022/12/12 17:27:51;;;;;;;19.50;5.28;;;18.50;53.80;;;;;;5046233;28;20025;-75
2022/12/12 17:30:19;;;;;;;20.30;5.55;;;18.50;53.50;;;;;;5041690;28;20029;-79
2022/12/12 17:32:45;;;;;;;19.15;5.88;;;18.50;53.90;;;;;;5046038;28;20040;-76
2022/12/12 17:35:11;;;;;;;17.45;5.80;;;18.60;54.10;;;;;;5030296;28;20025;-75
2022/12/12 17:37:37;;;;;;;16.92;7.35;;;18.50;54.20;;;;;;5047148;28;20025;-75
2022/12/12 17:40:05;;;;;;;40.03;9.02;;;18.60;54.10;;;;;;5044850;28;20021;-75
2022/12/12 17:42:31;;;;;;;18.33;9.00;;;18.60;54.20;;;;;;5047053;28;20025;-78
2022/12/12 17:44:58;;;;;;;27.02;9.77;;;18.60;54.10;;;;;;5029428;28;20044;-79
2022/12/12 17:47:24;;;;;;;25.60;9.50;;;18.60;54.00;;;;;;5048419;28;20021;-75
2022/12/12 17:49:50;;;;;;;21.10;8.32;;;18.60;54.00;;;;;;5046437;28;20163;-77
2022/12/12 17:52:16;;;;;;;18.38;8.13;;;18.60;53.80;;;;;;5045288;28;20021;-78
2022/12/12 17:54:41;;;;;;;19.40;8.80;;;18.60;54.40;;;;;;5044545;28;20036;-75
2022/12/12 17:57:08;;;;;;;22.58;8.07;;;18.60;53.70;;;;;;5045534;28;20064;-76
2022/12/12 17:59:34;;;;;;;23.45;8.35;;;18.70;54.70;;;;;;5045012;28;20107;-75
2022/12/12 18:02:00;;;;;;;30.65;7.85;;;18.70;55.10;;;;;;5045943;28;20061;-76
2022/12/12 18:04:25;;;;;;;30.27;9.73;;;18.80;55.70;;;;;;5046051;28;20025;-75
2022/12/12 18:06:52;;;;;;;19.42;8.25;;;18.70;54.40;;;;;;5027430;28;20036;-75
2022/12/12 18:09:18;;;;;;;19.05;7.93;;;18.60;54.40;;;;;;5026566;28;20488;-74
2022/12/12 18:11:44;;;;;;;18.95;7.97;;;18.50;53.60;;;;;;5032620;28;20044;-75
2022/12/12 18:14:17;;;;;;;19.52;7.95;;;18.50;54.20;;;;;;5030658;28;20075;-74
2022/12/12 18:16:49;;;;;;;18.75;7.85;;;18.50;53.70;;;;;;5030642;28;20029;-74
2022/12/12 18:19:21;;;;;;;15.15;7.82;;;18.40;54.30;;;;;;5032207;28;20080;-74
2022/12/12 18:21:47;;;;;;;17.15;7.70;;;18.40;54.20;;;;;;5016392;28;20021;-76
2022/12/12 18:24:14;;;;;;;19.00;7.85;;;18.40;54.00;;;;;;5032771;28;20548;-76
2022/12/12 18:26:40;;;;;;;17.38;7.47;;;18.40;53.80;;;;;;5033156;28;20477;-76
2022/12/12 18:29:07;;;;;;;16.50;7.97;;;18.40;53.60;;;;;;5034202;28;20370;-76
2022/12/12 18:31:34;;;;;;;15.00;7.43;;;18.30;53.40;;;;;;5034035;28;20029;-76
2022/12/12 18:33:59;;;;;;;14.60;7.13;;;18.30;53.30;;;;;;5032420;28;20033;-76
2022/12/12 18:36:27;;;;;;;12.20;7.05;;;18.30;53.10;;;;;;5033903;28;20112;-76
2022/12/12 18:38:59;;;;;;;14.50;7.13;;;18.30;53.20;;;;;;5032592;28;20026;-76
2022/12/12 18:41:26;;;;;;;15.10;7.32;;;18.30;53.00;;;;;;5016359;28;20038;-76
2022/12/12 18:43:52;;;;;;;16.00;7.50;;;18.30;52.80;;;;;;5032240;28;20036;-76
2022/12/12 18:46:20;;;;;;;17.08;6.80;;;18.30;52.90;;;;;;5033809;28;20554;-76
2022/12/12 18:48:47;;;;;;;17.63;8.02;;;18.30;52.60;;;;;;5032647;28;20505;-76
2022/12/12 18:51:15;;;;;;;13.55;6.93;;;18.20;52.70;;;;;;5032721;28;20125;-76
2022/12/12 18:53:41;;;;;;;13.30;6.90;;;18.30;52.70;;;;;;5031885;28;20049;-77
2022/12/12 18:56:09;;;;;;;13.82;6.95;;;18.30;52.50;;;;;;5033547;28;20440;-76
2022/12/12 18:58:36;;;;;;;12.88;7.00;;;18.20;52.80;;;;;;5032043;28;20435;-76
2022/12/12 19:01:08;;;;;;;13.43;6.40;;;18.20;53.10;;;;;;5032368;28;20026;-76
2022/12/12 19:03:34;;;;;;;11.68;6.47;;;18.20;52.70;;;;;;5033113;28;20438;-76
2022/12/12 19:06:10;;;;;;;13.50;6.60;;;18.30;52.70;;;;;;5032345;28;20029;-76
2022/12/12 19:08:36;;;;;;;15.88;7.30;;;18.30;52.60;;;;;;5033517;28;20030;-76
2022/12/12 19:11:02;;;;;;;10.48;6.72;;;18.20;52.50;;;;;;5033442;28;20038;-76
2022/12/12 19:13:29;;;;;;;12.25;6.88;;;18.30;52.50;;;;;;5031859;28;20030;-76
2022/12/12 19:15:56;;;;;;;11.68;6.40;;;18.30;52.30;;;;;;5033257;28;20045;-76
2022/12/12 19:18:23;;;;;;;13.15;7.15;;;18.30;52.30;;;;;;5032028;28;20103;-76
2022/12/12 19:20:48;;;;;;;17.25;6.65;;;18.20;52.40;;;;;;5032941;28;20491;-76
2022/12/12 19:23:15;;;;;;;10.45;6.28;;;18.20;52.30;;;;;;5031724;28;20018;-76
2022/12/12 19:25:40;;;;;;;17.15;6.60;;;18.20;52.30;;;;;;5032994;28;20029;-76
2022/12/12 19:28:06;;;;;;;11.40;6.25;;;18.20;52.10;;;;;;5032948;28;20026;-76
2022/12/12 19:30:37;;;;;;;12.23;6.35;;;18.20;52.20;;;;;;5031937;28;20025;-76
2022/12/12 19:33:02;;;;;;;10.80;6.45;;;18.30;52.20;;;;;;5031378;28;20456;-76
2022/12/12 19:35:28;;;;;;;12.70;6.95;;;18.20;52.20;;;;;;5032772;28;20026;-76
2022/12/12 19:37:54;;;;;;;11.00;6.40;;;18.30;52.30;;;;;;5031605;28;20542;-76
2022/12/12 19:40:20;;;;;;;10.68;6.65;;;18.20;52.20;;;;;;5032732;28;20025;-76
2022/12/12 19:42:45;;;;;;;10.82;6.03;;;18.30;52.20;;;;;;5031404;28;20030;-76
2022/12/12 19:45:11;;;;;;;11.07;5.78;;;18.30;52.40;;;;;;5032395;28;20025;-76
2022/12/12 19:47:37;;;;;;;10.43;6.20;;;18.30;52.40;;;;;;5032600;28;20045;-76
2022/12/12 19:50:03;;;;;;;12.15;6.20;;;18.30;52.50;;;;;;5032699;28;20120;-76
2022/12/12 19:52:29;;;;;;;10.82;6.47;;;18.30;52.90;;;;;;5031582;28;20040;-76
2022/12/12 19:54:55;;;;;;;13.07;6.55;;;18.30;52.40;;;;;;5030875;28;20124;-76
2022/12/12 19:57:24;;;;;;;11.73;6.53;;;18.20;52.40;;;;;;5014963;28;20072;-77
2022/12/12 19:59:50;;;;;;;;;;;18.30;52.50;;;;;;5032750;28;20033;-76
2022/12/12 20:02:16;;;;;;;11.77;6.80;;;18.30;52.50;;;;;;5031163;28;19913;-76
2022/12/12 20:04:42;;;;;;;13.25;6.38;;;18.30;52.50;;;;;;5030857;28;20029;-76
2022/12/12 20:07:08;;;;;;;10.85;6.13;;;18.30;52.50;;;;;;5032195;28;20026;-76
2022/12/12 20:09:34;;;;;;;10.60;6.75;;;18.30;52.60;;;;;;5032150;28;20029;-76
2022/12/12 20:12:00;;;;;;;15.38;6.18;;;18.30;52.60;;;;;;5031113;28;20033;-76
2022/12/12 20:14:32;;;;;;;12.93;5.95;;;18.30;52.60;;;;;;5014232;28;20111;-76
2022/12/12 20:16:58;;;;;;;9.10;5.88;;;18.30;52.60;;;;;;5031027;28;20037;-76
2022/12/12 20:19:26;;;;;;;12.07;6.28;;;18.30;52.60;;;;;;5030714;28;20052;-76
2022/12/12 20:21:52;;;;;;;10.38;5.90;;;18.30;52.70;;;;;;5030923;28;20485;-76
2022/12/12 20:24:20;;;;;;;11.70;6.22;;;18.40;52.70;;;;;;5030324;28;20405;-76
2022/12/12 20:26:46;;;;;;;9.63;5.88;;;18.30;52.60;;;;;;5030871;28;20116;-76
2022/12/12 20:29:13;;;;;;;11.23;5.90;;;18.40;52.70;;;;;;5032015;28;20025;-76
2022/12/12 20:31:44;;;;;;;10.55;6.10;;;18.40;52.70;;;;;;5032048;28;20040;-76
2022/12/12 20:34:11;;;;;;;10.30;5.55;;;18.40;52.60;;;;;;5030194;28;20033;-76
2022/12/12 20:36:37;;;;;;;10.38;6.00;;;18.40;52.60;;;;;;5031978;28;20033;-76
2022/12/12 20:39:05;;;;;;;10.05;5.88;;;18.40;52.60;;;;;;5030998;28;20037;-76
2022/12/12 20:41:35;;;;;;;10.52;6.03;;;18.40;52.60;;;;;;5030668;28;20025;-76
2022/12/12 20:44:01;;;;;;;10.98;5.90;;;18.40;52.50;;;;;;5030177;28;20021;-76
2022/12/12 20:46:33;;;;;;;10.90;5.78;;;18.40;52.50;;;;;;5031880;28;20036;-76
2022/12/12 20:49:02;;;;;;;10.80;6.22;;;18.40;52.50;;;;;;5031730;28;20108;-76
2022/12/12 20:51:31;;;;;;;10.10;5.72;;;18.40;52.60;;;;;;5030615;28;20026;-76
2022/12/12 20:53:59;;;;;;;9.23;5.45;;;18.40;52.50;;;;;;5031132;28;20026;-76
2022/12/12 20:56:26;;;;;;;10.85;5.60;;;18.40;52.50;;;;;;5031630;28;20029;-76
2022/12/12 20:58:55;;;;;;;10.55;5.70;;;18.40;52.60;;;;;;5030333;28;20083;-76
2022/12/12 21:01:23;;;;;;;9.88;6.25;;;18.40;52.50;;;;;;5013927;28;20485;-76
2022/12/12 21:03:49;;;;;;;10.07;5.57;;;18.40;52.50;;;;;;5031173;28;20033;-76
2022/12/12 21:06:23;;;;;;;10.45;5.97;;;18.40;52.50;;;;;;5032019;28;20082;-76
2022/12/12 21:08:50;;;;;;;9.23;5.72;;;18.40;52.50;;;;;;5031396;28;20044;-76
2022/12/12 21:11:21;;;;;;;9.40;5.82;;;18.40;52.50;;;;;;5013809;28;20492;-76
2022/12/12 21:13:49;;;;;;;9.38;6.00;;;18.40;52.50;;;;;;5031097;28;20067;-76
2022/12/12 21:16:22;;;;;;;10.68;5.97;;;18.40;52.50;;;;;;5013656;28;20552;-76
2022/12/12 21:18:50;;;;;;;8.23;5.30;;;18.40;52.50;;;;;;5031409;28;20022;-76
2022/12/12 21:21:16;;;;;;;7.93;5.32;;;18.40;52.50;;;;;;5031413;28;20021;-76
2022/12/12 21:23:42;;;;;;;11.07;5.93;;;18.40;52.50;;;;;;5030990;28;20033;-76
2022/12/12 21:26:16;;;;;;;9.13;5.88;;;18.40;52.50;;;;;;5013833;28;20130;-76
2022/12/12 21:28:45;;;;;;;8.98;5.63;;;18.40;52.50;;;;;;5031304;28;20018;-76
2022/12/12 21:31:20;;;;;;;8.07;4.97;;;18.40;52.50;;;;;;5031178;28;20026;-76
2022/12/12 21:33:51;;;;;;;9.43;5.45;;;18.40;52.40;;;;;;5029686;28;20036;-76
2022/12/12 21:36:19;;;;;;;10.38;5.70;;;18.40;52.50;;;;;;5030165;28;20026;-76
2022/12/12 21:38:46;;;;;;;8.90;5.78;;;18.40;52.40;;;;;;5031154;28;20480;-76
2022/12/12 21:41:14;;;;;;;7.70;5.03;;;18.40;52.40;;;;;;5031232;28;20030;-76
2022/12/12 21:43:41;;;;;;;8.77;5.47;;;18.40;52.50;;;;;;5029975;28;20432;-77
2022/12/12 21:46:10;;;;;;;8.70;5.55;;;18.40;52.50;;;;;;5014965;28;20080;-76
2022/12/12 21:48:36;;;;;;;10.20;5.10;;;18.40;52.40;;;;;;5033703;28;20135;-76
2022/12/12 21:51:05;;;;;;;8.50;5.43;;;18.40;52.40;;;;;;5033990;28;20033;-76
2022/12/12 21:53:35;;;;;;;9.80;5.50;;;18.40;52.40;;;;;;5034625;28;20025;-76
2022/12/12 21:56:03;;;;;;;;;;;18.40;52.30;;;;;;5035200;28;20455;-76
2022/12/12 21:58:30;;;;;;;8.13;5.22;;;18.40;52.40;;;;;;5033870;28;20272;-76
2022/12/12 22:01:03;;;;;;;10.23;5.53;;;18.40;52.40;;;;;;5034617;28;20037;-76
2022/12/12 22:03:29;;;;;;;9.95;5.47;;;18.40;52.30;;;;;;5034201;28;20489;-76
2022/12/12 22:05:54;;;;;;;8.55;5.45;;;18.40;52.40;;;;;;5034570;28;20064;-76
2022/12/12 22:08:20;;;;;;;8.70;5.22;;;18.40;52.20;;;;;;5033432;28;20511;-76
2022/12/12 22:10:46;;;;;;;8.63;5.32;;;18.40;52.30;;;;;;5034831;28;20030;-76
2022/12/12 22:13:12;;;;;;;9.55;5.40;;;18.40;52.30;;;;;;5032759;28;20037;-76
2022/12/12 22:15:37;;;;;;;8.00;5.10;;;18.40;52.30;;;;;;5034223;28;20056;-76
2022/12/12 22:18:03;;;;;;;9.20;5.32;;;18.40;52.20;;;;;;5034254;28;20037;-76
2022/12/12 22:20:29;;;;;;;8.35;5.20;;;18.40;52.20;;;;;;5032962;28;20029;-76
2022/12/12 22:22:54;;;;;;;8.70;5.38;;;18.40;52.30;;;;;;5034350;28;20025;-76
2022/12/12 22:25:20;;;;;;;13.63;6.53;;;18.40;52.20;;;;;;5028435;28;20385;-77
2022/12/12 22:27:46;;;;;;;17.77;6.78;;;18.40;52.10;;;;;;5031482;28;20025;-79
2022/12/12 22:30:12;;;;;;;20.70;6.28;;;18.40;52.10;;;;;;5033068;28;20055;-75
2022/12/12 22:32:38;;;;;;;12.00;6.07;;;18.50;52.20;;;;;;5031668;28;20060;-76
2022/12/12 22:35:04;;;;;;;13.98;5.70;;;18.40;52.10;;;;;;5033096;28;20021;-77
2022/12/12 22:37:29;;;;;;;17.42;5.78;;;18.50;51.90;;;;;;5015703;28;20034;-76
2022/12/12 22:39:55;;;;;;;18.05;5.65;;;18.50;52.00;;;;;;5031889;28;20167;-76
2022/12/12 22:42:21;;;;;;;10.90;5.30;;;18.50;52.30;;;;;;5032947;28;20120;-76
2022/12/12 22:44:47;;;;;;;13.65;5.57;;;18.50;52.40;;;;;;5032243;28;20567;-76
2022/12/12 22:47:13;;;;;;;15.25;5.30;;;18.50;52.60;;;;;;5033020;28;20029;-78
2022/12/12 22:49:40;;;;;;;15.07;5.68;;;18.50;52.50;;;;;;5033713;28;20040;-76
2022/12/12 22:52:05;;;;;;;14.88;6.10;;;18.50;52.70;;;;;;5033356;28;20026;-77
2022/12/12 22:54:31;;;;;;;11.73;4.75;;;18.50;52.70;;;;;;5032284;28;20037;-76
2022/12/12 22:56:57;;;;;;;16.77;5.22;;;18.50;52.80;;;;;;5015697;28;20030;-77
2022/12/12 22:59:23;;;;;;;11.90;5.85;;;18.50;52.90;;;;;;5033209;28;20503;-76
2022/12/12 23:01:49;;;;;;;14.00;5.40;;;18.50;52.90;;;;;;5033393;28;20073;-77
2022/12/12 23:04:14;;;;;;;10.50;5.28;;;18.50;52.90;;;;;;5031858;28;20037;-76
2022/12/12 23:06:41;;;;;;;13.68;5.20;;;18.50;53.00;;;;;;5031969;28;20025;-76
2022/12/12 23:09:16;;;;;;;17.52;5.60;;;18.50;52.90;;;;;;5033123;28;20075;-78
2022/12/12 23:11:43;;;;;;;11.93;5.65;;;18.50;53.00;;;;;;5031430;28;20056;-77
2022/12/12 23:14:13;;;;;;;11.35;4.82;;;18.50;53.10;;;;;;5032692;28;20500;-79
2022/12/12 23:16:39;;;;;;;11.70;5.05;;;18.50;53.20;;;;;;5031199;28;20036;-79
2022/12/12 23:19:08;;;;;;;10.98;5.13;;;18.50;53.20;;;;;;5033056;28;20469;-78
2022/12/12 23:21:36;;;;;;;12.90;5.25;;;18.50;53.20;;;;;;5031927;28;20473;-77
2022/12/12 23:24:02;;;;;;;10.70;5.07;;;18.50;53.30;;;;;;5031241;28;20473;-78
2022/12/12 23:26:29;;;;;;;9.82;5.00;;;18.50;53.20;;;;;;5011823;28;20021;-79
2022/12/12 23:28:56;;;;;;;8.65;4.50;;;18.50;53.20;;;;;;5031640;28;20038;-77
2022/12/12 23:31:30;;;;;;;12.35;5.25;;;18.50;53.40;;;;;;5031595;28;20061;-77
2022/12/12 23:34:01;;;;;;;20.25;5.45;;;18.60;52.90;;;;;;5032045;28;20061;-76
2022/12/12 23:36:28;;;;;;;12.43;4.88;;;18.60;52.90;;;;;;5028125;28;20021;-76
2022/12/12 23:38:59;;;;;;;7.75;4.65;;;18.60;52.90;;;;;;5031474;28;20054;-79
2022/12/12 23:41:25;;;;;;;11.50;5.25;;;18.60;52.80;;;;;;5032167;28;20072;-78
2022/12/12 23:43:52;;;;;;;7.82;4.85;;;18.60;52.90;;;;;;5030776;28;20025;-77
2022/12/12 23:46:27;;;;;;;9.18;5.25;;;18.70;52.90;;;;;;5030651;28;20022;-78
2022/12/12 23:48:58;;;;;;;10.55;5.13;;;18.70;52.60;;;;;;5014637;28;20033;-76
2022/12/12 23:51:25;;;;;;;8.65;5.10;;;18.70;52.50;;;;;;5030867;28;20401;-78
2022/12/12 23:53:55;;;;;;;10.32;5.60;;;18.70;52.10;;;;;;5030744;28;20032;-78
2022/12/12 23:56:22;;;;;;;12.77;5.50;;;18.70;52.30;;;;;;5014089;28;20022;-75
2022/12/12 23:58:57;;;;;;;9.98;5.65;;;18.70;52.30;;;;;;5011872;28;20065;-77
